createdAt,value
2018-06-08T00:01:51.762Z,1008.60
2018-06-08T00:02:51.772Z,1008.55
2018-06-08T00:04:44.730Z,1008.52
2018-06-08T00:05:44.730Z,1008.53
2018-06-08T00:07:37.673Z,1008.52
2018-06-08T00:08:37.683Z,1008.51
2018-06-08T00:10:30.657Z,1008.49
2018-06-08T00:11:30.639Z,1008.51
2018-06-08T00:13:23.587Z,1008.50
2018-06-08T00:14:23.595Z,1008.48
2018-06-08T00:16:16.564Z,1008.43
2018-06-08T00:17:16.552Z,1008.45
2018-06-08T00:19:09.524Z,1008.46
2018-06-08T00:20:09.512Z,1008.44
2018-06-08T00:22:02.450Z,1008.47
2018-06-08T00:23:02.466Z,1008.49
2018-06-08T00:24:55.432Z,1008.51
2018-06-08T00:25:55.422Z,1008.51
2018-06-08T00:27:48.359Z,1008.54
2018-06-08T00:28:48.372Z,1008.59
2018-06-08T00:30:41.332Z,1008.62
2018-06-08T00:31:41.329Z,1008.59
2018-06-08T00:33:34.268Z,1008.54
2018-06-08T00:34:34.283Z,1008.54
2018-06-08T00:36:27.239Z,1008.54
2018-06-08T00:37:27.235Z,1008.53
2018-06-08T00:39:20.196Z,1008.53
2018-06-08T00:40:20.191Z,1008.52
2018-06-08T00:42:13.132Z,1008.51
2018-06-08T00:43:13.150Z,1008.48
2018-06-08T00:45:06.107Z,1008.48
2018-06-08T00:46:06.108Z,1008.44
2018-06-08T00:47:59.054Z,1008.46
2018-06-08T00:48:59.072Z,1008.48
2018-06-08T00:50:52.048Z,1008.51
2018-06-08T00:51:52.027Z,1008.52
2018-06-08T00:53:44.964Z,1008.46
2018-06-08T00:54:44.978Z,1008.41
2018-06-08T00:56:37.946Z,1008.45
2018-06-08T00:57:37.930Z,1008.48
2018-06-08T00:59:30.886Z,1008.54
2018-06-08T01:00:30.886Z,1008.59
2018-06-08T01:02:23.828Z,1008.59
2018-06-08T01:03:23.843Z,1008.57
2018-06-08T01:05:16.814Z,1008.59
2018-06-08T01:06:16.803Z,1008.56
2018-06-08T01:08:09.749Z,1008.51
2018-06-08T01:09:09.760Z,1008.52
2018-06-08T01:11:02.729Z,1008.49
2018-06-08T01:12:02.710Z,1008.46
2018-06-08T01:13:55.667Z,1008.48
2018-06-08T01:14:55.675Z,1008.49
2018-06-08T01:16:48.634Z,1008.44
2018-06-08T01:17:48.628Z,1008.41
2018-06-08T01:19:41.591Z,1008.35
2018-06-08T01:20:41.578Z,1008.34
2018-06-08T01:22:34.550Z,1008.34
2018-06-08T01:23:34.535Z,1008.35
2018-06-08T01:25:27.500Z,1008.31
2018-06-08T01:26:27.489Z,1008.29
2018-06-08T01:28:20.432Z,1008.30
2018-06-08T01:29:20.443Z,1008.30
2018-06-08T01:31:13.411Z,1008.31
2018-06-08T01:32:13.405Z,1008.31
2018-06-08T01:34:06.344Z,1008.31
2018-06-08T01:35:06.355Z,1008.32
2018-06-08T01:36:59.314Z,1008.29
2018-06-08T01:37:59.319Z,1008.29
2018-06-08T01:39:52.269Z,1008.23
2018-06-08T01:40:52.265Z,1008.29
2018-06-08T01:42:45.201Z,1008.28
2018-06-08T01:43:45.217Z,1008.24
2018-06-08T01:45:38.168Z,1008.24
2018-06-08T01:46:38.166Z,1008.24
2018-06-08T01:48:31.598Z,1008.24
2018-06-08T03:48:28.302Z,1007.98
2018-06-08T03:49:28.285Z,1007.95
2018-06-08T03:51:21.232Z,1007.92
2018-06-08T03:52:21.227Z,1007.95
2018-06-08T03:54:14.149Z,1007.99
2018-06-08T03:55:14.160Z,1007.95
2018-06-08T03:57:07.106Z,1007.97
2018-06-08T03:58:07.105Z,1007.95
2018-06-08T04:00:00.029Z,1007.91
2018-06-08T04:01:00.053Z,1007.91
2018-06-08T04:02:53.001Z,1007.94
2018-06-08T04:03:52.993Z,1007.91
2018-06-08T04:05:45.923Z,1007.94
2018-06-08T04:06:45.933Z,1007.91
2018-06-08T04:08:38.884Z,1007.84
2018-06-08T04:09:38.880Z,1007.91
2018-06-08T04:11:31.843Z,1007.91
2018-06-08T04:12:31.830Z,1007.89
2018-06-08T04:14:24.791Z,1007.83
2018-06-08T04:15:24.767Z,1007.93
2018-06-08T04:17:17.735Z,1007.93
2018-06-08T04:18:17.723Z,1007.95
2018-06-08T04:20:10.663Z,1007.96
2018-06-08T04:21:10.673Z,1007.87
2018-06-08T04:23:03.633Z,1007.90
2018-06-08T04:24:03.628Z,1007.88
2018-06-08T04:25:56.573Z,1007.94
2018-06-08T04:26:56.587Z,1007.89
2018-06-08T04:28:49.546Z,1007.92
2018-06-08T04:29:49.540Z,1007.95
2018-06-08T04:31:42.511Z,1007.91
2018-06-08T04:32:42.506Z,1007.97
2018-06-08T04:34:35.443Z,1007.95
2018-06-08T04:35:35.451Z,1007.96
2018-06-08T04:37:28.424Z,1007.88
2018-06-08T04:38:28.405Z,1007.95
2018-06-08T04:40:21.397Z,1007.92
2018-06-08T04:41:21.364Z,1007.91
2018-06-08T04:43:14.318Z,1007.90
2018-06-08T04:44:14.318Z,1007.86
2018-06-08T04:46:07.254Z,1007.91
2018-06-08T04:47:07.274Z,1007.90
2018-06-08T04:49:00.235Z,1007.92
2018-06-08T04:50:00.228Z,1007.97
2018-06-08T04:51:53.191Z,1007.99
2018-06-08T04:52:53.192Z,1007.98
2018-06-08T04:54:46.135Z,1007.99
2018-06-08T04:55:46.160Z,1008.02
2018-06-08T04:57:39.107Z,1008.00
2018-06-08T04:58:39.098Z,1008.01
2018-06-08T05:00:32.039Z,1008.09
2018-06-08T05:01:32.061Z,1008.11
2018-06-08T05:03:25.013Z,1008.08
2018-06-08T05:04:25.012Z,1008.12
2018-06-08T05:06:18.010Z,1008.11
2018-06-08T05:07:18.010Z,1008.10
2018-06-08T05:09:10.984Z,1008.10
2018-06-08T05:10:10.976Z,1008.10
2018-06-08T05:12:03.922Z,1008.10
2018-06-08T05:13:03.917Z,1008.08
2018-06-08T05:14:56.853Z,1008.10
2018-06-08T05:15:56.871Z,1008.08
2018-06-08T05:17:49.836Z,1008.08
2018-06-08T05:18:49.836Z,1008.05
2018-06-08T05:20:42.762Z,1008.07
2018-06-08T05:21:42.774Z,1008.07
2018-06-08T05:23:35.735Z,1008.12
2018-06-08T05:24:35.730Z,1008.12
2018-06-08T05:26:28.691Z,1008.13
2018-06-08T05:27:28.695Z,1008.14
2018-06-08T05:29:21.662Z,1008.13
2018-06-08T05:30:21.650Z,1008.20
2018-06-08T05:32:14.639Z,1008.20
2018-06-08T05:33:14.610Z,1008.19
2018-06-08T05:35:07.643Z,1008.20
2018-06-08T05:36:07.690Z,1008.22
2018-06-08T05:38:00.626Z,1008.25
2018-06-08T05:39:00.617Z,1008.22
2018-06-08T05:40:53.664Z,1008.25
2018-06-08T05:41:53.675Z,1008.27
2018-06-08T05:43:46.745Z,1008.24
2018-06-08T05:44:46.732Z,1008.30
2018-06-08T05:46:39.686Z,1008.29
2018-06-08T05:47:39.703Z,1008.27
2018-06-08T05:49:32.656Z,1008.25
2018-06-08T05:50:32.653Z,1008.27
2018-06-08T05:52:25.614Z,1008.28
2018-06-08T05:53:25.615Z,1008.29
2018-06-08T05:55:18.550Z,1008.27
2018-06-08T05:56:18.563Z,1008.27
2018-06-08T05:58:11.524Z,1008.32
2018-06-08T05:59:11.517Z,1008.34
2018-06-08T06:01:04.482Z,1008.32
2018-06-08T06:02:04.483Z,1008.31
2018-06-08T06:03:57.444Z,1008.35
2018-06-08T06:04:57.452Z,1008.36
2018-06-08T06:06:50.370Z,1008.35
2018-06-08T06:07:50.396Z,1008.39
2018-06-08T06:09:43.431Z,1008.40
2018-06-08T06:10:43.393Z,1008.40
2018-06-08T06:12:36.445Z,1008.39
2018-06-08T06:13:36.452Z,1008.45
2018-06-08T06:15:29.486Z,1008.45
2018-06-08T06:16:29.498Z,1008.48
2018-06-08T06:18:22.565Z,1008.44
2018-06-08T06:19:22.554Z,1008.48
2018-06-08T06:21:15.594Z,1008.49
2018-06-08T06:22:15.609Z,1008.50
2018-06-08T06:24:08.669Z,1008.47
2018-06-08T06:25:08.666Z,1008.46
2018-06-08T06:27:01.719Z,1008.50
2018-06-08T06:28:01.728Z,1008.53
2018-06-08T06:29:54.778Z,1008.50
2018-06-08T06:30:54.784Z,1008.51
2018-06-08T06:32:47.864Z,1008.53
2018-06-08T06:33:47.830Z,1008.49
2018-06-08T06:35:40.939Z,1008.48
2018-06-08T06:36:40.889Z,1008.53
2018-06-08T06:38:33.949Z,1008.54
2018-06-08T06:39:33.961Z,1008.58
2018-06-08T06:41:26.984Z,1008.62
2018-06-08T06:42:27.046Z,1008.60
2018-06-08T06:44:20.058Z,1008.67
2018-06-08T06:45:20.052Z,1008.68
2018-06-08T06:47:13.357Z,1008.74
2018-06-08T06:48:13.111Z,1008.78
2018-06-08T06:50:06.168Z,1008.75
2018-06-08T06:51:06.172Z,1008.79
2018-06-08T06:52:59.211Z,1008.78
2018-06-08T06:53:59.227Z,1008.84
2018-06-08T06:55:52.276Z,1008.81
2018-06-08T06:56:52.276Z,1008.78
2018-06-08T06:58:45.413Z,1008.79
2018-06-08T06:59:45.350Z,1008.72
2018-06-08T07:01:38.376Z,1008.75
2018-06-08T07:02:38.385Z,1008.78
2018-06-08T07:04:31.556Z,1008.77
2018-06-08T07:05:31.441Z,1008.79
2018-06-08T07:07:24.481Z,1008.84
2018-06-08T07:08:24.497Z,1008.87
2018-06-08T07:10:17.553Z,1008.94
2018-06-08T07:11:17.612Z,1008.96
2018-06-08T07:13:10.592Z,1009.02
2018-06-08T07:14:10.616Z,1009.04
2018-06-08T07:16:03.676Z,1009.06
2018-06-08T07:17:03.663Z,1009.08
2018-06-08T07:18:56.725Z,1009.04
2018-06-08T07:19:56.725Z,1009.03
2018-06-08T07:21:49.800Z,1009.02
2018-06-08T07:22:49.801Z,1009.02
2018-06-08T07:24:42.874Z,1009.05
2018-06-08T07:25:42.979Z,1009.05
2018-06-08T07:27:35.878Z,1009.10
2018-06-08T07:28:35.891Z,1009.16
2018-06-08T07:30:28.944Z,1009.19
2018-06-08T07:31:28.951Z,1009.20
2018-06-08T07:33:22.018Z,1009.22
2018-06-08T07:34:22.010Z,1009.21
2018-06-08T07:36:15.060Z,1009.20
2018-06-08T07:37:15.078Z,1009.20
2018-06-08T07:39:08.119Z,1009.18
2018-06-08T07:40:08.202Z,1009.15
2018-06-08T07:42:01.171Z,1009.08
2018-06-08T07:43:01.165Z,1009.09
2018-06-08T07:44:54.237Z,1009.13
2018-06-08T07:45:54.218Z,1009.14
2018-06-08T07:47:47.159Z,1009.16
2018-06-08T07:48:47.172Z,1009.17
2018-06-08T07:50:40.135Z,1009.17
2018-06-08T07:51:40.127Z,1009.17
2018-06-08T07:53:33.074Z,1009.20
2018-06-08T07:54:33.089Z,1009.19
2018-06-08T07:56:26.038Z,1009.20
2018-06-08T07:57:26.035Z,1009.14
2018-06-08T07:59:18.979Z,1009.17
2018-06-08T08:00:18.995Z,1009.17
2018-06-08T08:02:11.952Z,1009.22
2018-06-08T08:03:11.945Z,1009.19
2018-06-08T08:05:04.995Z,1009.19
2018-06-08T08:06:04.993Z,1009.21
2018-06-08T08:07:58.043Z,1009.21
2018-06-08T08:08:58.048Z,1009.20
2018-06-08T08:10:51.118Z,1009.19
2018-06-08T08:11:51.113Z,1009.18
2018-06-08T08:13:44.063Z,1009.24
2018-06-08T08:14:46.825Z,1009.23
2018-06-08T08:16:37.153Z,1009.28
2018-06-08T08:17:37.111Z,1009.25
2018-06-08T08:19:30.164Z,1009.34
2018-06-08T08:20:30.186Z,1009.34
2018-06-08T08:22:23.228Z,1009.30
2018-06-08T08:23:23.222Z,1009.29
2018-06-08T08:25:16.298Z,1009.27
2018-06-08T08:26:16.294Z,1009.33
2018-06-08T08:28:09.321Z,1009.31
2018-06-08T08:29:09.337Z,1009.34
2018-06-08T08:31:02.402Z,1009.32
2018-06-08T08:32:02.412Z,1009.37
2018-06-08T08:33:55.540Z,1009.34
2018-06-08T08:34:55.449Z,1009.39
2018-06-08T08:36:48.520Z,1009.37
2018-06-08T08:37:48.504Z,1009.38
2018-06-08T08:39:41.591Z,1009.38
2018-06-08T08:40:41.556Z,1009.40
2018-06-08T08:42:34.782Z,1009.30
2018-06-08T08:43:34.647Z,1009.33
2018-06-08T08:46:27.698Z,1009.34
2018-06-08T08:48:20.715Z,1009.34
2018-06-08T08:49:20.730Z,1009.34
2018-06-08T08:51:13.949Z,1009.28
2018-06-08T08:52:13.790Z,1009.30
2018-06-08T08:54:06.831Z,1009.33
2018-06-08T08:55:06.874Z,1009.36
2018-06-08T08:57:00.015Z,1009.40
2018-06-08T08:57:59.893Z,1009.40
2018-06-08T08:59:52.999Z,1009.43
2018-06-08T09:00:52.953Z,1009.45
2018-06-08T09:02:46.078Z,1009.44
2018-06-08T09:03:46.031Z,1009.48
2018-06-08T09:05:39.098Z,1009.51
2018-06-08T09:06:39.059Z,1009.54
2018-06-08T09:08:32.095Z,1009.50
2018-06-08T09:09:32.129Z,1009.55
2018-06-08T09:11:25.234Z,1009.53
2018-06-08T09:12:25.166Z,1009.57
2018-06-08T09:14:18.208Z,1009.61
2018-06-08T09:15:18.218Z,1009.60
2018-06-08T09:17:11.281Z,1009.61
2018-06-08T09:18:11.279Z,1009.59
2018-06-08T09:20:04.337Z,1009.54
2018-06-08T09:21:04.332Z,1009.52
2018-06-08T09:22:57.392Z,1009.57
2018-06-08T09:23:57.391Z,1009.53
2018-06-08T09:25:50.461Z,1009.52
2018-06-08T09:26:50.452Z,1009.51
2018-06-08T09:28:43.495Z,1009.57
2018-06-08T09:29:43.511Z,1009.56
2018-06-08T09:31:36.560Z,1009.59
2018-06-08T09:32:36.554Z,1009.59
2018-06-08T09:34:29.598Z,1009.60
2018-06-08T09:35:29.609Z,1009.55
2018-06-08T09:37:22.667Z,1009.55
2018-06-08T09:38:22.665Z,1009.61
2018-06-08T09:40:15.605Z,1009.66
2018-06-08T09:41:15.620Z,1009.67
2018-06-08T09:43:08.587Z,1009.66
2018-06-08T09:44:08.574Z,1009.69
2018-06-08T09:46:01.535Z,1009.70
2018-06-08T09:47:01.533Z,1009.72
2018-06-08T09:48:54.495Z,1009.75
2018-06-08T09:49:54.483Z,1009.77
2018-06-08T09:51:47.578Z,1009.78
2018-06-08T09:52:47.623Z,1009.74
2018-06-08T09:54:41.018Z,1009.77
2018-06-08T09:55:41.005Z,1009.79
2018-06-08T09:57:34.062Z,1009.72
2018-06-08T09:58:34.057Z,1009.76
2018-06-08T10:00:27.118Z,1009.80
2018-06-08T10:01:27.120Z,1009.83
2018-06-08T10:03:20.170Z,1009.89
2018-06-08T10:04:20.165Z,1009.86
2018-06-08T10:06:13.210Z,1009.91
2018-06-08T10:07:13.241Z,1009.96
2018-06-08T10:09:06.286Z,1009.92
2018-06-08T10:10:06.280Z,1009.88
2018-06-08T10:11:59.343Z,1009.94
2018-06-08T10:12:59.337Z,1009.90
2018-06-08T10:14:52.375Z,1009.94
2018-06-08T10:15:52.392Z,1009.96
2018-06-08T10:17:45.456Z,1009.92
2018-06-08T10:18:45.448Z,1009.90
2018-06-08T10:20:38.487Z,1010.00
2018-06-08T10:21:38.502Z,1009.98
2018-06-08T10:23:31.560Z,1009.96
2018-06-08T10:24:31.555Z,1009.98
2018-06-08T10:26:24.601Z,1009.94
2018-06-08T10:27:24.611Z,1009.92
2018-06-08T10:29:17.675Z,1009.86
2018-06-08T10:30:17.676Z,1009.90
2018-06-08T10:32:10.726Z,1009.94
2018-06-08T10:33:10.724Z,1010.03
2018-06-08T10:35:03.764Z,1009.97
2018-06-08T10:36:03.783Z,1010.00
2018-06-08T10:37:56.838Z,1009.95
2018-06-08T10:38:56.847Z,1009.91
2018-06-08T10:40:49.882Z,1009.86
2018-06-08T10:41:49.894Z,1009.89
2018-06-08T10:43:42.950Z,1009.84
2018-06-08T10:44:42.951Z,1009.87
2018-06-08T10:46:36.009Z,1009.85
2018-06-08T10:47:36.004Z,1009.84
2018-06-08T10:49:29.058Z,1009.76
2018-06-08T10:50:29.428Z,1009.73
2018-06-08T10:52:22.320Z,1009.71
2018-06-08T10:53:22.371Z,1009.69
2018-06-08T10:55:15.427Z,1009.67
2018-06-08T10:56:15.426Z,1009.70
2018-06-08T10:58:08.429Z,1009.64
2018-06-08T10:59:08.434Z,1009.62
2018-06-08T11:01:01.468Z,1009.64
2018-06-08T11:02:01.487Z,1009.65
2018-06-08T11:03:54.543Z,1009.63
2018-06-08T11:04:54.553Z,1009.62
2018-06-08T11:06:47.576Z,1009.58
2018-06-08T11:07:47.598Z,1009.55
2018-06-08T11:09:40.656Z,1009.56
2018-06-08T11:10:40.658Z,1009.56
2018-06-08T11:12:33.707Z,1009.52
2018-06-08T11:13:33.712Z,1009.52
2018-06-08T11:15:26.764Z,1009.41
2018-06-08T11:16:26.766Z,1009.38
2018-06-08T11:18:19.731Z,1009.37
2018-06-08T11:19:19.726Z,1009.32
2018-06-08T11:21:12.713Z,1009.32
2018-06-08T11:22:12.685Z,1009.31
2018-06-08T11:24:05.652Z,1009.33
2018-06-08T11:25:05.648Z,1009.35
2018-06-08T11:26:58.630Z,1009.39
2018-06-08T11:27:58.612Z,1009.37
2018-06-08T11:29:51.581Z,1009.35
2018-06-08T11:30:51.583Z,1009.32
2018-06-08T11:32:44.521Z,1009.35
2018-06-08T11:33:44.540Z,1009.31
2018-06-08T11:35:37.501Z,1009.35
2018-06-08T11:36:37.499Z,1009.36
2018-06-08T11:38:30.459Z,1009.39
2018-06-08T11:39:30.510Z,1009.35
2018-06-08T11:41:23.400Z,1009.36
2018-06-08T11:42:23.416Z,1009.32
2018-06-08T11:44:16.382Z,1009.34
2018-06-08T11:45:16.379Z,1009.33
2018-06-08T11:47:09.319Z,1009.36
2018-06-08T11:48:09.339Z,1009.34
2018-06-08T11:50:02.305Z,1009.40
2018-06-08T11:51:02.298Z,1009.39
2018-06-08T11:52:55.244Z,1009.44
2018-06-08T11:53:55.262Z,1009.42
2018-06-08T11:55:48.225Z,1009.41
2018-06-08T11:56:48.227Z,1009.44
2018-06-08T11:58:41.190Z,1009.48
2018-06-08T11:59:41.185Z,1009.49
2018-06-08T12:01:34.183Z,1009.48
2018-06-08T12:02:34.203Z,1009.45
2018-06-08T12:04:27.157Z,1009.45
2018-06-08T12:05:27.159Z,1009.50
2018-06-08T12:07:20.094Z,1009.44
2018-06-08T12:08:20.112Z,1009.47
2018-06-08T12:10:13.185Z,1009.43
2018-06-08T12:11:13.175Z,1009.41
2018-06-08T12:13:06.262Z,1009.39
2018-06-08T12:14:06.234Z,1009.48
2018-06-08T12:15:59.195Z,1009.46
2018-06-08T12:16:59.192Z,1009.39
2018-06-08T12:18:52.153Z,1009.42
2018-06-08T12:19:52.161Z,1009.38
2018-06-08T12:21:45.096Z,1009.37
2018-06-08T12:22:45.117Z,1009.36
2018-06-08T12:24:38.074Z,1009.29
2018-06-08T12:25:38.075Z,1009.32
2018-06-08T12:27:31.007Z,1009.26
2018-06-08T12:28:31.027Z,1009.27
2018-06-08T12:30:23.982Z,1009.22
2018-06-08T12:31:23.986Z,1009.23
2018-06-08T12:33:16.920Z,1009.20
2018-06-08T12:34:16.938Z,1009.16
2018-06-08T12:36:09.969Z,1009.09
2018-06-08T12:37:09.963Z,1009.12
2018-06-08T12:39:03.914Z,1009.08
2018-06-08T12:40:03.912Z,1009.06
2018-06-08T12:41:56.855Z,1009.01
2018-06-08T12:42:56.865Z,1008.97
2018-06-08T12:44:49.825Z,1008.99
2018-06-08T12:45:49.827Z,1008.93
2018-06-08T12:47:42.764Z,1008.95
2018-06-08T12:48:42.786Z,1008.92
2018-06-08T12:50:35.733Z,1008.87
2018-06-08T12:51:35.739Z,1008.90
2018-06-08T12:53:28.719Z,1008.85
2018-06-08T12:54:28.692Z,1008.87
2018-06-08T12:56:21.648Z,1008.90
2018-06-08T12:57:21.649Z,1008.84
2018-06-08T12:59:14.588Z,1008.86
2018-06-08T13:00:14.601Z,1008.87
2018-06-08T13:02:07.563Z,1008.83
2018-06-08T13:03:07.614Z,1008.80
2018-06-08T13:05:00.526Z,1008.80
2018-06-08T13:06:00.523Z,1008.75
2018-06-08T13:07:53.460Z,1008.81
2018-06-08T13:08:53.483Z,1008.81
2018-06-08T13:10:46.443Z,1008.75
2018-06-08T13:11:46.434Z,1008.75
2018-06-08T13:13:39.378Z,1008.74
2018-06-08T13:14:39.395Z,1008.71
2018-06-08T13:16:32.345Z,1008.70
2018-06-08T13:17:32.347Z,1008.71
2018-06-08T13:19:25.286Z,1008.71
2018-06-08T13:20:25.307Z,1008.70
2018-06-08T13:22:18.264Z,1008.74
2018-06-08T13:23:18.268Z,1008.77
2018-06-08T13:25:11.222Z,1008.77
2018-06-08T13:26:11.220Z,1008.79
2018-06-08T13:28:04.173Z,1008.71
2018-06-08T13:29:04.198Z,1008.74
2018-06-08T13:30:57.142Z,1008.71
2018-06-08T13:31:57.144Z,1008.74
2018-06-08T13:33:50.085Z,1008.69
2018-06-08T13:34:50.104Z,1008.77
2018-06-08T13:36:43.064Z,1008.76
2018-06-08T13:37:43.062Z,1008.79
2018-06-08T13:39:36.025Z,1008.75
2018-06-08T13:40:36.024Z,1008.76
2018-06-08T13:42:28.981Z,1008.77
2018-06-08T13:43:28.976Z,1008.78
2018-06-08T13:45:21.935Z,1008.77
2018-06-08T13:46:21.937Z,1008.80
2018-06-08T13:48:14.881Z,1008.79
2018-06-08T13:49:14.894Z,1008.81
2018-06-08T13:51:07.866Z,1008.80
2018-06-08T13:52:07.865Z,1008.82
2018-06-08T13:54:00.801Z,1008.78
2018-06-08T13:55:00.819Z,1008.79
2018-06-08T13:56:53.776Z,1008.77
2018-06-08T13:57:53.776Z,1008.73
2018-06-08T13:59:46.715Z,1008.72
2018-06-08T14:00:46.753Z,1008.74
2018-06-08T14:02:39.694Z,1008.74
2018-06-08T14:03:39.700Z,1008.77
2018-06-08T14:05:32.670Z,1008.79
2018-06-08T14:06:32.662Z,1008.80
2018-06-08T14:08:25.604Z,1008.78
2018-06-08T14:09:25.634Z,1008.79
2018-06-08T14:11:18.589Z,1008.72
2018-06-08T14:12:18.589Z,1008.75
2018-06-08T14:14:11.540Z,1008.70
2018-06-08T14:15:11.550Z,1008.69
2018-06-08T14:17:04.511Z,1008.64
2018-06-08T14:18:04.511Z,1008.66
2018-06-08T14:19:57.483Z,1008.61
2018-06-08T14:20:57.489Z,1008.59
2018-06-08T14:22:50.449Z,1008.62
2018-06-08T14:23:50.453Z,1008.58
2018-06-08T14:25:43.408Z,1008.60
2018-06-08T14:26:43.409Z,1008.58
2018-06-08T14:28:36.349Z,1008.54
2018-06-08T14:29:36.370Z,1008.56
2018-06-08T14:31:29.329Z,1008.58
2018-06-08T14:32:29.325Z,1008.57
2018-06-08T14:34:22.271Z,1008.52
2018-06-08T14:35:22.291Z,1008.48
2018-06-08T14:37:15.253Z,1008.49
2018-06-08T14:38:15.276Z,1008.51
2018-06-08T14:40:08.192Z,1008.47
2018-06-08T14:41:08.228Z,1008.46
2018-06-08T14:43:01.186Z,1008.41
2018-06-08T14:44:01.189Z,1008.40
2018-06-08T14:45:54.152Z,1008.37
2018-06-08T14:46:54.161Z,1008.33
2018-06-08T14:48:47.097Z,1008.32
2018-06-08T14:49:47.116Z,1008.35
2018-06-08T14:51:40.077Z,1008.33
2018-06-08T14:52:40.102Z,1008.34
2018-06-08T14:54:33.033Z,1008.31
2018-06-08T14:55:33.041Z,1008.29
2018-06-08T14:57:26.050Z,1008.23
2018-06-08T14:58:26.054Z,1008.27
2018-06-08T15:00:18.998Z,1008.19
2018-06-08T15:01:19.018Z,1008.23
2018-06-08T15:03:11.970Z,1008.21
2018-06-08T15:04:11.971Z,1008.15
2018-06-08T15:06:04.933Z,1008.20
2018-06-08T15:07:04.932Z,1008.19
2018-06-08T15:08:57.874Z,1008.14
2018-06-08T15:09:57.895Z,1008.10
2018-06-08T15:11:50.860Z,1008.09
2018-06-08T15:12:50.851Z,1008.11
2018-06-08T15:14:43.811Z,1008.11
2018-06-08T15:15:43.826Z,1008.10
2018-06-08T15:17:36.794Z,1008.14
2018-06-08T15:18:36.782Z,1008.15
2018-06-08T15:20:29.730Z,1008.14
2018-06-08T15:21:29.746Z,1008.09
2018-06-08T15:23:22.710Z,1008.12
2018-06-08T15:24:22.708Z,1008.09
2018-06-08T15:26:15.666Z,1008.05
2018-06-08T15:27:15.669Z,1008.06
2018-06-08T15:29:08.613Z,1008.01
2018-06-08T15:30:08.626Z,1007.98
2018-06-08T15:32:01.585Z,1007.99
2018-06-08T15:33:01.588Z,1008.00
2018-06-08T15:34:54.541Z,1008.02
2018-06-08T15:35:54.553Z,1008.03
2018-06-08T15:37:47.515Z,1008.07
2018-06-08T15:38:47.511Z,1008.07
2018-06-08T15:40:40.515Z,1008.08
2018-06-08T15:41:40.470Z,1008.02
2018-06-08T15:43:33.429Z,1008.05
2018-06-08T15:44:33.438Z,1008.05
2018-06-08T15:46:26.391Z,1008.11
2018-06-08T15:47:26.389Z,1008.09
2018-06-08T15:49:19.338Z,1008.16
2018-06-08T15:50:19.354Z,1008.14
2018-06-08T15:52:12.311Z,1008.12
2018-06-08T15:53:12.311Z,1008.10
2018-06-08T15:55:05.266Z,1008.09
2018-06-08T15:56:05.274Z,1008.08
2018-06-08T15:57:58.235Z,1008.04
2018-06-08T15:58:58.233Z,1008.02
2018-06-08T16:00:51.185Z,1008.06
2018-06-08T16:01:51.190Z,1008.02
2018-06-08T16:03:44.162Z,1007.99
2018-06-08T16:04:44.163Z,1007.91
2018-06-08T16:06:37.126Z,1007.95
2018-06-08T16:07:37.123Z,1007.91
2018-06-08T16:09:30.086Z,1007.87
2018-06-08T16:10:30.078Z,1007.92
2018-06-08T16:12:23.056Z,1007.88
2018-06-08T16:13:23.042Z,1007.85
2018-06-08T16:15:15.985Z,1007.84
2018-06-08T16:16:16.000Z,1007.81
2018-06-08T16:18:08.958Z,1007.83
2018-06-08T16:19:08.960Z,1007.78
2018-06-08T16:21:01.898Z,1007.81
2018-06-08T16:22:01.916Z,1007.82
2018-06-08T16:23:54.918Z,1007.76
2018-06-08T16:24:54.870Z,1007.76
2018-06-08T16:26:47.833Z,1007.71
2018-06-08T16:27:47.833Z,1007.72
2018-06-08T16:29:40.772Z,1007.75
2018-06-08T16:30:40.787Z,1007.76
2018-06-08T16:32:33.743Z,1007.76
2018-06-08T16:33:33.752Z,1007.80
2018-06-08T16:35:26.693Z,1007.83
2018-06-08T16:36:26.710Z,1007.80
2018-06-08T16:38:19.665Z,1007.79
2018-06-08T16:39:19.672Z,1007.80
2018-06-08T16:41:12.616Z,1007.80
2018-06-08T16:42:12.623Z,1007.82
2018-06-08T16:44:05.590Z,1007.85
2018-06-08T16:45:05.590Z,1007.84
2018-06-08T16:46:58.544Z,1007.89
2018-06-08T16:47:58.540Z,1007.88
2018-06-08T16:49:51.483Z,1007.88
2018-06-08T16:50:51.504Z,1007.89
2018-06-08T16:52:44.464Z,1007.86
2018-06-08T16:53:44.464Z,1007.91
2018-06-08T16:55:37.398Z,1007.86
2018-06-08T16:56:37.416Z,1007.82
2018-06-08T16:58:30.379Z,1007.81
2018-06-08T16:59:30.382Z,1007.80
2018-06-08T17:01:23.325Z,1007.79
2018-06-08T17:02:23.356Z,1007.86
2018-06-08T17:04:16.301Z,1007.90
2018-06-08T17:05:16.300Z,1007.82
2018-06-08T17:07:09.257Z,1007.86
2018-06-08T17:08:09.252Z,1007.82
2018-06-08T17:10:02.215Z,1007.78
2018-06-08T17:11:02.214Z,1007.81
2018-06-08T17:12:55.181Z,1007.75
2018-06-08T17:13:55.178Z,1007.71
2018-06-08T17:15:48.122Z,1007.77
2018-06-08T17:16:48.142Z,1007.75
2018-06-08T17:18:41.116Z,1007.73
2018-06-08T17:19:41.108Z,1007.73
2018-06-08T17:21:34.069Z,1007.70
2018-06-08T17:22:34.077Z,1007.69
2018-06-08T17:24:27.042Z,1007.67
2018-06-08T17:25:27.053Z,1007.71
2018-06-08T17:27:20.000Z,1007.71
2018-06-08T17:28:20.004Z,1007.72
2018-06-08T17:30:13.451Z,1007.76
2018-06-08T17:31:13.530Z,1007.77
2018-06-08T17:33:07.425Z,1007.84
2018-06-08T17:34:07.421Z,1007.83
2018-06-08T17:36:00.368Z,1007.84
2018-06-08T17:37:00.383Z,1007.82
2018-06-08T17:38:53.355Z,1007.87
2018-06-08T17:39:53.348Z,1007.79
2018-06-08T17:41:46.284Z,1007.93
2018-06-08T17:42:46.307Z,1007.87
2018-06-08T17:44:39.267Z,1007.96
2018-06-08T17:45:39.267Z,1007.98
2018-06-08T17:47:32.235Z,1007.97
2018-06-08T17:48:32.239Z,1007.99
2018-06-08T17:50:25.180Z,1007.98
2018-06-08T17:51:25.193Z,1007.99
2018-06-08T17:53:18.149Z,1008.00
2018-06-08T17:54:18.145Z,1007.96
2018-06-08T17:56:11.079Z,1008.02
2018-06-08T17:57:11.152Z,1008.05
2018-06-08T17:59:04.058Z,1008.07
2018-06-08T18:00:04.061Z,1008.06
2018-06-08T18:01:57.003Z,1008.06
2018-06-08T18:02:57.012Z,1008.04
2018-06-08T18:04:49.975Z,1008.05
2018-06-08T18:05:49.968Z,1008.05
2018-06-08T18:07:42.940Z,1008.07
2018-06-08T18:08:42.937Z,1008.11
2018-06-08T18:10:35.881Z,1008.11
2018-06-08T18:11:35.959Z,1008.10
2018-06-08T18:13:28.855Z,1008.15
2018-06-08T18:14:28.860Z,1008.16
2018-06-08T18:16:21.826Z,1008.17
2018-06-08T18:17:21.839Z,1008.14
2018-06-08T18:19:15.288Z,1008.18
2018-06-08T18:20:15.292Z,1008.15
2018-06-08T18:22:08.275Z,1008.17
2018-06-08T18:23:08.240Z,1008.17
2018-06-08T18:25:01.200Z,1008.20
2018-06-08T18:26:01.197Z,1008.20
2018-06-08T18:27:54.161Z,1008.16
2018-06-08T18:28:54.157Z,1008.12
2018-06-08T18:30:47.095Z,1008.11
2018-06-08T18:31:47.105Z,1008.09
2018-06-08T18:33:40.063Z,1008.08
2018-06-08T18:34:40.064Z,1008.09
2018-06-08T18:36:32.993Z,1008.11
2018-06-08T18:37:33.019Z,1008.11
2018-06-08T18:39:25.967Z,1008.10
2018-06-08T18:40:25.966Z,1008.09
2018-06-08T18:42:18.911Z,1008.09
2018-06-08T18:43:18.919Z,1008.11
2018-06-08T18:45:11.882Z,1008.09
2018-06-08T18:46:11.876Z,1008.13
2018-06-08T18:48:04.829Z,1008.15
2018-06-08T18:49:04.829Z,1008.10
2018-06-08T18:50:57.769Z,1008.06
2018-06-08T18:51:57.783Z,1008.04
2018-06-08T18:53:50.739Z,1008.04
2018-06-08T18:54:50.738Z,1008.02
2018-06-08T18:56:43.679Z,1008.00
2018-06-08T18:57:43.698Z,1008.00
2018-06-08T18:59:36.659Z,1008.01
2018-06-08T19:00:36.651Z,1007.99
2018-06-08T19:02:29.585Z,1008.01
2018-06-08T19:03:29.607Z,1008.04
2018-06-08T19:05:22.564Z,1008.06
2018-06-08T19:06:22.562Z,1008.00
2018-06-08T19:08:16.520Z,1008.01
2018-06-08T19:09:16.507Z,1007.94
2018-06-08T19:11:09.462Z,1008.03
2018-06-08T19:12:09.476Z,1008.03
2018-06-08T19:14:02.429Z,1008.02
2018-06-08T19:15:02.438Z,1008.01
2018-06-08T19:16:55.372Z,1007.90
2018-06-08T19:17:55.385Z,1007.96
2018-06-08T19:19:48.347Z,1007.97
2018-06-08T19:20:48.339Z,1007.94
2018-06-08T19:22:41.273Z,1007.96
2018-06-08T19:23:41.289Z,1007.95
2018-06-08T19:25:38.624Z,1007.96
2018-06-08T19:26:37.687Z,1007.97